Time;durP1;ratioP1;P1;durP2;ratioP2;P2;SDS_P1;SDS_P2;PMS_P1;PMS_P2;Temp;Humidity;BMP_temperature;BMP_pressure;BME280_temperature;BME280_humidity;BME280_pressure;Samples;Min_cycle;Max_cycle;Signal;HPM_P1;HPM_P2
2022/07/17 00:02:15;;;;;;;2.88;0.70;;;19.90;84.40;;;;;;5153004;27;20022;-77
2022/07/17 00:04:41;;;;;;;1.77;0.80;;;19.90;84.50;;;;;;5153628;27;20031;-78
2022/07/17 00:07:06;;;;;;;1.77;0.80;;;19.90;84.50;;;;;;5152418;27;20034;-77
2022/07/17 00:09:32;;;;;;;1.73;0.80;;;19.90;84.60;;;;;;5153843;27;20029;-77
2022/07/17 00:11:57;;;;;;;2.35;0.90;;;19.90;84.60;;;;;;5153592;27;20050;-77
2022/07/17 00:14:23;;;;;;;1.58;0.80;;;19.80;84.50;;;;;;5153977;27;20414;-77
2022/07/17 00:16:49;;;;;;;1.23;0.75;;;19.90;84.50;;;;;;5152198;27;20853;-76
2022/07/17 00:19:14;;;;;;;1.98;0.90;;;19.90;85.10;;;;;;5152436;27;20015;-77
2022/07/17 00:21:40;;;;;;;2.38;0.90;;;19.90;84.50;;;;;;5153760;27;20042;-76
2022/07/17 00:24:06;;;;;;;1.80;0.60;;;19.90;84.50;;;;;;5153792;27;20023;-77
2022/07/17 00:26:32;;;;;;;1.55;0.68;;;19.80;84.30;;;;;;5152061;27;20026;-76
2022/07/17 00:28:58;;;;;;;1.40;0.77;;;19.90;84.30;;;;;;5153667;27;20023;-77
2022/07/17 00:31:23;;;;;;;2.00;0.77;;;19.90;84.40;;;;;;5152408;27;20026;-76
2022/07/17 00:33:49;;;;;;;1.67;0.70;;;19.90;84.20;;;;;;5153434;27;20031;-76
2022/07/17 00:36:14;;;;;;;0.75;0.60;;;19.90;84.20;;;;;;5151992;27;20034;-76
2022/07/17 00:38:40;;;;;;;1.15;0.60;;;19.90;84.20;;;;;;5153665;27;20044;-77
2022/07/17 00:41:05;;;;;;;1.45;0.70;;;19.90;84.10;;;;;;5153598;27;20375;-77
2022/07/17 00:43:31;;;;;;;1.00;0.60;;;19.90;84.10;;;;;;5156176;27;20022;-77
2022/07/17 00:45:58;;;;;;;1.60;0.73;;;19.90;84.20;;;;;;5155654;27;20014;-77
2022/07/17 00:48:24;;;;;;;1.27;0.70;;;19.80;84.20;;;;;;5156156;27;20057;-77
2022/07/17 00:50:50;;;;;;;1.80;0.90;;;19.90;84.60;;;;;;5157141;27;20056;-76
2022/07/17 00:53:16;;;;;;;2.35;0.95;;;19.90;84.60;;;;;;5155963;27;20026;-76
2022/07/17 00:55:41;;;;;;;1.75;0.65;;;19.90;84.80;;;;;;5155641;27;20072;-76
2022/07/17 00:58:09;;;;;;;1.95;0.80;;;19.80;84.70;;;;;;5157175;27;20030;-77
2022/07/17 01:00:35;;;;;;;1.10;0.80;;;19.80;84.70;;;;;;5155827;27;20375;-76
2022/07/17 01:03:01;;;;;;;1.92;0.80;;;19.80;84.70;;;;;;5157451;27;20029;-76
2022/07/17 01:05:27;;;;;;;1.15;0.80;;;19.80;84.70;;;;;;5155407;27;20031;-77
2022/07/17 01:07:52;;;;;;;1.08;0.70;;;19.80;84.70;;;;;;5155701;27;20049;-76
2022/07/17 01:10:19;;;;;;;1.20;0.70;;;19.80;84.80;;;;;;5157048;27;20058;-77
2022/07/17 01:12:46;;;;;;;1.23;0.65;;;19.80;84.80;;;;;;5156137;27;20023;-77
2022/07/17 01:15:12;;;;;;;1.05;0.75;;;19.90;84.70;;;;;;5155111;27;20022;-76
2022/07/17 01:17:38;;;;;;;1.30;0.70;;;19.90;84.70;;;;;;5155584;27;20019;-77
2022/07/17 01:20:06;;;;;;;1.98;0.80;;;19.90;84.60;;;;;;5151047;27;20034;-77
2022/07/17 01:22:32;;;;;;;1.55;0.80;;;19.90;84.50;;;;;;5143013;27;20030;-76
2022/07/17 01:24:58;;;;;;;1.10;0.75;;;19.90;84.40;;;;;;5123755;27;20023;-77
2022/07/17 01:27:23;;;;;;;1.83;0.80;;;19.90;84.40;;;;;;5130095;27;20088;-77
2022/07/17 01:29:49;;;;;;;1.05;0.57;;;19.90;84.40;;;;;;5148500;27;20022;-76
2022/07/17 01:32:15;;;;;;;2.03;0.77;;;19.90;84.30;;;;;;5123778;27;20028;-78
2022/07/17 01:34:40;;;;;;;1.08;0.73;;;19.90;84.30;;;;;;5135103;27;20495;-76
2022/07/17 01:37:06;;;;;;;1.23;0.80;;;19.90;84.50;;;;;;5121324;27;20030;-78
2022/07/17 01:42:15;;;;;;;2.60;0.63;;;19.80;84.60;;;;;;5156217;27;20079;-77
2022/07/17 01:44:41;;;;;;;2.97;0.70;;;19.80;84.30;;;;;;5121688;27;20019;-77
2022/07/17 01:47:06;;;;;;;1.52;0.70;;;19.80;84.20;;;;;;5122405;27;20082;-79
2022/07/17 01:49:32;;;;;;;2.13;0.70;;;19.80;84.30;;;;;;5135482;27;20027;-78
2022/07/17 01:51:59;;;;;;;1.75;0.90;;;19.80;84.30;;;;;;5135374;27;20039;-77
2022/07/17 01:54:26;;;;;;;1.63;0.60;;;19.80;84.40;;;;;;5135167;27;20596;-77
2022/07/17 01:56:51;;;;;;;1.80;0.70;;;19.80;84.30;;;;;;5116459;27;20027;-76
2022/07/17 01:59:17;;;;;;;2.67;0.80;;;19.80;84.40;;;;;;5116310;27;20015;-76
2022/07/17 02:01:42;;;;;;;2.25;0.80;;;19.80;84.30;;;;;;5121688;27;20046;-79
2022/07/17 02:04:08;;;;;;;2.80;0.93;;;19.80;84.20;;;;;;5135731;27;20027;-77
2022/07/17 02:06:33;;;;;;;2.88;0.85;;;19.80;84.20;;;;;;5140362;27;20031;-80
2022/07/17 02:08:59;;;;;;;1.70;0.70;;;19.90;84.20;;;;;;5146006;27;20051;-75
